Latest Weather Observations for Outer Harbor (Black Pole)

IDS60801

Issued at 4:21 am CDT Tuesday 13 November 2018 (issued every 10 minutes, with the page automatically refreshed every 10 minutes)

About weather observations | Map of weather stations | Latest weather observations for SA | Other Formats
Station Details ID: 023052 Name: BLACK POLE Lat: -34.73 Lon: 138.47 Height: 6.27 m
Data from the previous 72 hours. | See also: Recent months for locations in South Australia
Date/Time
CDT
Temp
°C
App
Temp
°C
Dew
Point
°C
Rel
Hum
%
Delta-T
°C
Wind Press
QNH
hPa
Press
MSL
hPa
Rain since
9am
mm
Dir  Spd
km/h
Gust
km/h
Spd
kts
Gust
kts
13/04:00am - - - - - WNW 19 30 10 16 - - -
13/03:30am - - - - - NE 22 28 12 15 - - -
13/03:00am - - - - - NE 22 28 12 15 - - -
13/02:30am - - - - - N 15 20 8 11 - - -
13/02:00am - - - - - NE 17 17 9 9 - - -
13/01:30am - - - - - NE 17 19 9 10 - - -
13/01:00am - - - - - NE 20 24 11 13 - - -
13/12:30am - - - - - ENE 22 28 12 15 - - -
13/12:00am - - - - - NE 22 26 12 14 - - -
 
Date/Time
CDT
Temp
°C
App
Temp
°C
Dew
Point
°C
Rel
Hum
%
Delta-T
°C
Wind Press
QNH
hPa
Press
MSL
hPa
Rain since
9am
mm
Dir  Spd
km/h
Gust
km/h
Spd
kts
Gust
kts
12/11:30pm - - - - - NNE 19 24 10 13 - - -
12/11:00pm - - - - - N 20 32 11 17 - - -
12/10:30pm - - - - - NE 9 22 5 12 - - -
12/10:00pm - - - - - NE 15 28 8 15 - - -
12/09:30pm - - - - - S 13 28 7 15 - - -
12/09:00pm - - - - - SE 19 22 10 12 - - -
12/08:30pm - - - - - ESE 15 17 8 9 - - -
12/08:00pm - - - - - S 9 11 5 6 - - -
12/07:30pm - - - - - S 13 15 7 8 - - -
12/07:00pm - - - - - S 20 24 11 13 - - -
12/06:30pm - - - - - SSW 26 32 14 17 - - -
12/06:00pm - - - - - SSW 26 30 14 16 - - -
12/05:30pm - - - - - SSW 33 41 18 22 - - -
12/05:00pm - - - - - SSW 37 46 20 25 - - -
12/04:30pm - - - - - SW 41 61 22 33 - - -
12/04:24pm - - - - - W 22 52 12 28 - - -
12/04:00pm - - - - - W 19 20 10 11 - - -
12/03:30pm - - - - - W 15 19 8 10 - - -
12/03:00pm - - - - - WNW 19 20 10 11 - - -
12/02:30pm - - - - - WNW 15 19 8 10 - - -
12/02:00pm - - - - - WNW 15 20 8 11 - - -
12/01:30pm - - - - - WNW 15 19 8 10 - - -
12/01:00pm - - - - - NW 22 24 12 13 - - -
12/12:30pm - - - - - NW 22 26 12 14 - - -
12/12:00pm - - - - - NW 22 26 12 14 - - -
12/11:30am - - - - - NW 26 33 14 18 - - -
12/11:00am - - - - - NNW 26 35 14 19 - - -
12/10:30am - - - - - NNW 26 32 14 17 - - -
12/10:00am - - - - - N 22 30 12 16 - - -
12/09:30am - - - - - NNE 19 20 10 11 - - -
12/09:00am - - - - - NNE 20 22 11 12 - - -
12/08:30am - - - - - NE 22 24 12 13 - - -
12/08:00am - - - - - NE 20 22 11 12 - - -
12/07:30am - - - - - NE 22 26 12 14 - - -
12/07:00am - - - - - NE 24 30 13 16 - - -
12/06:30am - - - - - NE 19 22 10 12 - - -
12/06:00am - - - - - NE 17 19 9 10 - - -
12/05:30am - - - - - NE 15 19 8 10 - - -
12/05:00am - - - - - NE 19 20 10 11 - - -
12/04:30am - - - - - NNE 19 22 10 12 - - -
12/04:00am - - - - - NE 22 26 12 14 - - -
12/03:30am - - - - - NNE 13 17 7 9 - - -
12/03:00am - - - - - NE 11 13 6 7 - - -
12/02:30am - - - - - NE 11 15 6 8 - - -
12/02:00am - - - - - ENE 13 15 7 8 - - -
12/01:30am - - - - - E 17 19 9 10 - - -
12/01:00am - - - - - E 17 20 9 11 - - -
12/12:30am - - - - - E 19 20 10 11 - - -
12/12:00am - - - - - E 19 24 10 13 - - -
 
Date/Time
CDT
Temp
°C
App
Temp
°C
Dew
Point
°C
Rel
Hum
%
Delta-T
°C
Wind Press
QNH
hPa
Press
MSL
hPa
Rain since
9am
mm
Dir  Spd
km/h
Gust
km/h
Spd
kts
Gust
kts
11/11:30pm - - - - - ESE 20 24 11 13 - - -
11/11:00pm - - - - - ESE 20 24 11 13 - - -
11/10:30pm - - - - - ESE 22 28 12 15 - - -
11/10:00pm - - - - - ESE 17 19 9 10 - - -
11/09:30pm - - - - - SSE 13 13 7 7 - - -
11/09:00pm - - - - - SSE 13 15 7 8 - - -
11/08:30pm - - - - - S 20 24 11 13 - - -
11/08:00pm - - - - - S 19 20 10 11 - - -
11/07:30pm - - - - - S 19 22 10 12 - - -
11/07:00pm - - - - - S 20 22 11 12 - - -
11/06:30pm - - - - - S 20 22 11 12 - - -
11/06:00pm - - - - - S 22 24 12 13 - - -
11/05:30pm - - - - - S 20 24 11 13 - - -
11/05:00pm - - - - - S 20 22 11 12 - - -
11/04:30pm - - - - - S 20 24 11 13 - - -
11/04:00pm - - - - - S 22 26 12 14 - - -
11/03:30pm - - - - - S 24 28 13 15 - - -
11/03:00pm - - - - - SSW 20 24 11 13 - - -
11/02:30pm - - - - - SSW 20 22 11 12 - - -
11/02:00pm - - - - - SW 24 26 13 14 - - -
11/01:30pm - - - - - SW 22 26 12 14 - - -
11/01:00pm - - - - - SSW 22 28 12 15 - - -
11/12:30pm - - - - - S 22 24 12 13 - - -
11/12:00pm - - - - - ENE 13 20 7 11 - - -
11/11:30am - - - - - ENE 15 20 8 11 - - -
11/11:00am - - - - - NE 19 22 10 12 - - -
11/10:30am - - - - - ENE 17 22 9 12 - - -
11/10:00am - - - - - ENE 2 15 1 8 - - -
11/09:30am - - - - - NE 2 4 1 2 - - -
11/09:00am - - - - - NE 2 4 1 2 - - -
11/08:30am - - - - - E 7 9 4 5 - - -
11/08:00am - - - - - E 9 11 5 6 - - -
11/07:30am - - - - - E 11 15 6 8 - - -
11/07:00am - - - - - NE 15 17 8 9 - - -
11/06:30am - - - - - NE 17 20 9 11 - - -
11/06:00am - - - - - NE 17 20 9 11 - - -
11/05:30am - - - - - NE 17 20 9 11 - - -
11/05:00am - - - - - ENE 19 22 10 12 - - -
11/04:30am - - - - - NE 13 17 7 9 - - -
11/04:00am - - - - - ENE 15 19 8 10 - - -
11/03:30am - - - - - NE 9 13 5 7 - - -
11/03:00am - - - - - NE 9 13 5 7 - - -
11/02:30am - - - - - NNE 9 11 5 6 - - -
11/02:00am - - - - - NNE 6 9 3 5 - - -
11/01:30am - - - - - ENE 6 7 3 4 - - -
11/01:00am - - - - - E 6 9 3 5 - - -
11/12:30am - - - - - E 19 24 10 13 - - -
11/12:00am - - - - - ESE 17 19 9 10 - - -
 
Date/Time
CDT
Temp
°C
App
Temp
°C
Dew
Point
°C
Rel
Hum
%
Delta-T
°C
Wind Press
QNH
hPa
Press
MSL
hPa
Rain since
9am
mm
Dir  Spd
km/h
Gust
km/h
Spd
kts
Gust
kts
10/11:30pm - - - - - ESE 20 24 11 13 - - -
10/11:00pm - - - - - ESE 24 28 13 15 - - -
10/10:30pm - - - - - SE 17 20 9 11 - - -
10/10:00pm - - - - - SSE 17 20 9 11 - - -
10/09:30pm - - - - - SSW 30 33 16 18 - - -
10/09:00pm - - - - - S 28 33 15 18 - - -
10/08:30pm - - - - - S 28 35 15 19 - - -
10/08:00pm - - - - - S 28 32 15 17 - - -
10/07:30pm - - - - - S 30 35 16 19 - - -
10/07:00pm - - - - - SSW 28 33 15 18 - - -
10/06:30pm - - - - - S 28 32 15 17 - - -
10/06:00pm - - - - - S 26 32 14 17 - - -
10/05:30pm - - - - - S 28 32 15 17 - - -
10/05:00pm - - - - - S 24 30 13 16 - - -
10/04:30pm - - - - - S 22 26 12 14 - - -
10/04:00pm - - - - - S 22 26 12 14 - - -
10/03:30pm - - - - - S 22 24 12 13 - - -
10/03:00pm - - - - - SSW 22 24 12 13 - - -
10/02:30pm - - - - - SSW 22 24 12 13 - - -
10/02:00pm - - - - - SSW 20 22 11 12 - - -
10/01:30pm - - - - - SW 17 19 9 10 - - -
10/01:00pm - - - - - SW 15 17 8 9 - - -
10/12:30pm - - - - - SW 9 11 5 6 - - -
10/12:00pm - - - - - SW 11 13 6 7 - - -
10/11:30am - - - - - SSW 9 11 5 6 - - -
10/11:00am - - - - - SE 4 7 2 4 - - -
10/10:30am - - - - - CALM 0 2 0 1 - - -
10/10:00am - - - - - NE 6 9 3 5 - - -
10/09:30am - - - - - NE 13 15 7 8 - - -
10/09:00am - - - - - NNE 6 13 3 7 - - -
10/08:30am - - - - - NE 9 11 5 6 - - -
10/08:00am - - - - - NE 9 11 5 6 - - -
10/07:30am - - - - - NE 11 13 6 7 - - -
10/07:00am - - - - - NE 11 15 6 8 - - -
10/06:30am - - - - - NE 17 19 9 10 - - -
10/06:00am - - - - - NE 19 20 10 11 - - -
10/05:30am - - - - - NNE 17 19 9 10 - - -
10/05:00am - - - - - NNE 13 17 7 9 - - -
10/04:30am - - - - - NE 15 17 8 9 - - -

Other Formats:

Comma delimited format used in spreadsheet applications
http://www.bom.gov.au/fwo/IDS60801/IDS60801.95675.axf

JavaScript Object Notation format (JSON) in row-major order
http://www.bom.gov.au/fwo/IDS60801/IDS60801.95675.json